Time;durP1;ratioP1;P1;durP2;ratioP2;P2;SDS_P1;SDS_P2;PMS_P1;PMS_P2;Temp;Humidity;BMP_temperature;BMP_pressure;BME280_temperature;BME280_humidity;BME280_pressure;Samples;Min_cycle;Max_cycle;Signal;HPM_P1;HPM_P2
2023/11/17 00:01:37;;;;;;;0.10;0.10;;;;;;;6.21;100.00;100492.44;4943972;28;20118;-77
2023/11/17 00:04:02;;;;;;;0.00;0.00;;;;;;;6.11;100.00;100506.59;4931167;28;20130;-77
2023/11/17 00:06:28;;;;;;;0.00;0.00;;;;;;;5.93;100.00;100504.78;4933606;28;20030;-76
2023/11/17 00:08:54;;;;;;;0.00;0.00;;;;;;;5.67;100.00;100500.59;4927690;28;20039;-76
2023/11/17 00:11:20;;;;;;;0.00;0.00;;;;;;;5.45;100.00;100494.81;4948398;28;20022;-77
2023/11/17 00:13:46;;;;;;;0.00;0.00;;;;;;;5.21;100.00;100492.00;4932309;28;20031;-75
2023/11/17 00:16:11;;;;;;;0.10;0.10;;;;;;;4.92;100.00;100483.66;4932114;28;20092;-75
2023/11/17 00:18:37;;;;;;;0.10;0.10;;;;;;;4.92;100.00;100491.78;4932614;28;20039;-77
2023/11/17 00:21:03;;;;;;;0.00;0.00;;;;;;;4.77;100.00;100507.56;4930116;28;20034;-76
2023/11/17 00:23:29;;;;;;;0.00;0.00;;;;;;;4.71;100.00;100518.25;4947201;28;20512;-76
2023/11/17 00:25:55;;;;;;;0.00;0.00;;;;;;;4.72;100.00;100511.78;4934220;28;20047;-77
2023/11/17 00:28:24;;;;;;;0.00;0.00;;;;;;;4.68;100.00;100488.91;4922272;28;20112;-76
2023/11/17 00:30:50;;;;;;;0.00;0.00;;;;;;;4.78;100.00;100501.09;4967932;28;20034;-77
2023/11/17 00:33:16;;;;;;;0.00;0.00;;;;;;;4.66;100.00;100491.00;4971363;28;20698;-77
2023/11/17 00:35:46;;;;;;;0.00;0.00;;;;;;;4.63;100.00;100458.97;4973333;28;20880;-74
2023/11/17 00:38:15;;;;;;;0.00;0.00;;;;;;;4.81;100.00;100481.69;4949982;28;20034;-78
2023/11/17 00:40:41;;;;;;;0.00;0.00;;;;;;;4.87;100.00;100492.44;4962044;28;20101;-76
2023/11/17 00:43:09;;;;;;;0.10;0.10;;;;;;;4.76;100.00;100487.78;4931931;28;20027;-77
2023/11/17 00:45:34;;;;;;;0.10;0.10;;;;;;;4.84;100.00;100502.91;4926642;28;20046;-78
2023/11/17 00:48:00;;;;;;;0.00;0.00;;;;;;;4.88;100.00;100487.84;4955001;28;20035;-76
2023/11/17 00:50:25;;;;;;;0.00;0.00;;;;;;;4.96;100.00;100484.00;4925196;28;20117;-75
2023/11/17 00:52:51;;;;;;;0.00;0.00;;;;;;;4.89;100.00;100473.22;4947957;28;20027;-75
2023/11/17 00:55:17;;;;;;;0.00;0.00;;;;;;;4.98;100.00;100499.00;4938596;28;20873;-74
2023/11/17 00:57:44;;;;;;;0.00;0.00;;;;;;;4.81;100.00;100468.97;4953935;28;20038;-74
2023/11/17 01:00:11;;;;;;;0.00;0.00;;;;;;;4.84;100.00;100503.72;4968003;28;20030;-74
2023/11/17 01:02:40;;;;;;;0.00;0.00;;;;;;;4.88;100.00;100504.13;4944718;28;20444;-76
2023/11/17 01:05:10;;;;;;;0.00;0.00;;;;;;;4.76;100.00;100476.09;4948319;28;20065;-74
2023/11/17 01:07:37;;;;;;;0.10;0.10;;;;;;;4.78;100.00;100495.69;4962242;28;20027;-74
2023/11/17 01:10:05;;;;;;;0.00;0.00;;;;;;;4.71;100.00;100493.84;4961231;28;20048;-72
2023/11/17 01:12:34;;;;;;;0.00;0.00;;;;;;;4.53;100.00;100485.75;4948442;28;21581;-72
2023/11/17 01:15:07;;;;;;;0.00;0.00;;;;;;;4.48;100.00;100507.25;4923481;28;20031;-74
2023/11/17 01:17:32;;;;;;;0.00;0.00;;;;;;;4.55;100.00;100516.13;4950380;28;20033;-73
2023/11/17 01:19:58;;;;;;;0.00;0.00;;;;;;;4.51;100.00;100514.91;4936115;28;20035;-73
2023/11/17 01:22:24;;;;;;;0.10;0.10;;;;;;;4.28;100.00;100483.06;4937376;28;20027;-73
2023/11/17 01:24:49;;;;;;;0.00;0.00;;;;;;;4.49;100.00;100517.03;4929875;28;20042;-74
2023/11/17 01:27:15;;;;;;;0.00;0.00;;;;;;;4.52;100.00;100511.16;4926489;28;20508;-74
2023/11/17 01:29:41;;;;;;;0.10;0.10;;;;;;;4.29;100.00;100480.16;4936168;28;20031;-74
2023/11/17 01:32:07;;;;;;;0.00;0.00;;;;;;;4.44;100.00;100495.19;4943324;28;20084;-74
2023/11/17 01:34:32;;;;;;;0.00;0.00;;;;;;;4.38;100.00;100494.22;4945978;28;20023;-74
2023/11/17 01:36:58;;;;;;;0.00;0.00;;;;;;;4.36;100.00;100510.66;4933768;28;20034;-73
2023/11/17 01:39:24;;;;;;;0.00;0.00;;;;;;;4.23;100.00;100491.84;4958086;28;20030;-74
2023/11/17 01:41:50;;;;;;;0.00;0.00;;;;;;;4.14;100.00;100498.59;4936723;28;20392;-74
2023/11/17 01:44:16;;;;;;;0.10;0.10;;;;;;;4.13;100.00;100502.34;4966027;28;20050;-75
2023/11/17 01:46:44;;;;;;;0.10;0.10;;;;;;;4.16;100.00;100521.69;4970255;28;20037;-74
2023/11/17 01:49:13;;;;;;;0.00;0.00;;;;;;;4.01;100.00;100516.59;4940290;28;20041;-75
2023/11/17 01:51:40;;;;;;;0.00;0.00;;;;;;;4.07;100.00;100538.44;4939825;28;20026;-74
2023/11/17 01:54:07;;;;;;;0.00;0.00;;;;;;;4.08;100.00;100540.09;4962898;28;20050;-75
2023/11/17 01:56:34;;;;;;;0.10;0.10;;;;;;;3.94;100.00;100510.44;4946526;28;20039;-74
2023/11/17 01:59:00;;;;;;;0.00;0.00;;;;;;;4.03;100.00;100524.53;4926322;28;20039;-74
2023/11/17 02:01:27;;;;;;;0.10;0.10;;;;;;;3.98;100.00;100535.16;4929703;29;20045;-74
2023/11/17 02:03:53;;;;;;;0.00;0.00;;;;;;;4.09;100.00;100557.97;4930182;28;20062;-74
2023/11/17 02:06:40;;;;;;;0.00;0.00;;;;;;;4.12;100.00;100554.84;4935504;28;20031;-73
2023/11/17 02:09:24;;;;;;;0.00;0.00;;;;;;;4.11;100.00;100550.47;4962797;28;20039;-74
2023/11/17 02:12:11;;;;;;;0.00;0.00;;;;;;;4.03;100.00;100546.16;4949387;28;20037;-75
2023/11/17 02:14:41;;;;;;;0.00;0.00;;;;;;;4.05;100.00;100540.53;4956449;28;20027;-74
2023/11/17 02:17:08;;;;;;;0.00;0.00;;;;;;;3.98;100.00;100533.28;4949981;28;20493;-74
2023/11/17 02:19:43;;;;;;;0.00;0.00;;;;;;;3.93;100.00;100525.00;4944232;28;20139;-74
2023/11/17 02:22:14;;;;;;;0.00;0.00;;;;;;;3.89;100.00;100528.38;4930804;28;20049;-74
2023/11/17 02:24:45;;;;;;;0.00;0.00;;;;;;;3.85;100.00;100533.38;4942743;28;20022;-74
2023/11/17 02:27:40;;;;;;;0.00;0.00;;;;;;;3.80;100.00;100530.50;4961238;28;20042;-75
2023/11/17 02:30:08;;;;;;;0.00;0.00;;;;;;;3.71;100.00;100531.81;4954355;28;20034;-74
2023/11/17 02:32:38;;;;;;;0.00;0.00;;;;;;;3.59;100.00;100513.59;4929841;28;20828;-75
2023/11/17 02:35:06;;;;;;;0.00;0.00;;;;;;;3.65;100.00;100517.28;4929947;28;20039;-74
2023/11/17 02:37:31;;;;;;;0.10;0.10;;;;;;;3.67;100.00;100524.13;4928966;29;20130;-74
2023/11/17 02:39:56;;;;;;;0.00;0.00;;;;;;;3.73;100.00;100524.31;4916264;28;20135;-74
2023/11/17 02:42:26;;;;;;;0.00;0.00;;;;;;;3.72;100.00;100528.06;4927159;29;20027;-74
2023/11/17 02:44:52;;;;;;;0.00;0.00;;;;;;;3.65;100.00;100522.69;4938610;28;20027;-73
2023/11/17 02:47:27;;;;;;;0.00;0.00;;;;;;;3.86;100.00;100535.03;4941167;28;20037;-73
2023/11/17 02:50:01;;;;;;;0.08;0.08;;;;;;;3.83;100.00;100524.66;4944408;28;20029;-74
2023/11/17 02:52:48;;;;;;;0.00;0.00;;;;;;;3.91;100.00;100527.06;4943617;28;20031;-74
2023/11/17 02:55:15;;;;;;;0.10;0.10;;;;;;;4.08;100.00;100542.78;4945648;28;21360;-75
2023/11/17 02:57:42;;;;;;;0.00;0.00;;;;;;;4.15;100.00;100521.91;4944500;28;20054;-75
2023/11/17 03:00:11;;;;;;;0.00;0.00;;;;;;;4.28;100.00;100531.78;4929325;28;20085;-74
2023/11/17 03:02:39;;;;;;;0.00;0.00;;;;;;;4.28;100.00;100535.34;4963753;28;20035;-74
2023/11/17 03:05:14;;;;;;;0.00;0.00;;;;;;;4.31;100.00;100532.19;4914807;28;20069;-76
2023/11/17 03:07:40;;;;;;;0.00;0.00;;;;;;;4.43;100.00;100545.81;4945933;28;20294;-76
2023/11/17 03:10:07;;;;;;;0.00;0.00;;;;;;;4.54;100.00;100557.78;4942181;28;20066;-72
2023/11/17 03:12:33;;;;;;;0.00;0.00;;;;;;;4.65;100.00;100551.66;4945252;28;20038;-74
2023/11/17 03:14:58;;;;;;;0.00;0.00;;;;;;;4.78;100.00;100547.16;4916085;28;20077;-74
2023/11/17 03:17:24;;;;;;;0.00;0.00;;;;;;;4.82;100.00;100540.22;4966631;28;20038;-74
2023/11/17 03:19:49;;;;;;;0.00;0.00;;;;;;;4.71;100.00;100537.19;4911179;29;20035;-75
2023/11/17 03:22:15;;;;;;;0.00;0.00;;;;;;;4.74;100.00;100556.78;4931473;28;20045;-75
2023/11/17 03:24:43;;;;;;;0.00;0.00;;;;;;;4.72;100.00;100548.88;4923885;28;20107;-74
2023/11/17 03:27:11;;;;;;;0.00;0.00;;;;;;;4.77;100.00;100540.09;4970756;28;20608;-74
2023/11/17 03:29:36;;;;;;;0.00;0.00;;;;;;;4.80;100.00;100545.03;4964205;28;20031;-74
2023/11/17 03:32:02;;;;;;;0.00;0.00;;;;;;;4.77;100.00;100530.06;4931082;29;20047;-74
2023/11/17 03:34:30;;;;;;;0.00;0.00;;;;;;;4.75;100.00;100542.19;4927875;28;20387;-74
2023/11/17 03:36:57;;;;;;;0.00;0.00;;;;;;;4.68;100.00;100540.38;4962253;28;20034;-75
2023/11/17 03:39:27;;;;;;;0.00;0.00;;;;;;;4.50;100.00;100507.84;4935523;28;20022;-74
2023/11/17 03:41:53;;;;;;;0.10;0.10;;;;;;;4.49;100.00;100517.03;4962990;28;20030;-75
2023/11/17 03:44:24;;;;;;;0.00;0.00;;;;;;;4.64;100.00;100541.84;4957913;28;20078;-75
2023/11/17 03:46:53;;;;;;;0.00;0.00;;;;;;;4.71;100.00;100541.81;4935871;28;20078;-75
2023/11/17 03:49:19;;;;;;;0.00;0.00;;;;;;;4.82;100.00;100551.06;4946394;28;20097;-74
2023/11/17 03:51:45;;;;;;;0.00;0.00;;;;;;;4.85;100.00;100556.06;4914709;28;20710;-74
2023/11/17 03:54:15;;;;;;;0.00;0.00;;;;;;;4.77;100.00;100561.75;4940006;28;20039;-74
2023/11/17 03:56:41;;;;;;;0.00;0.00;;;;;;;4.67;100.00;100562.25;4945745;28;20043;-74
2023/11/17 03:59:09;;;;;;;0.00;0.00;;;;;;;4.58;100.00;100559.00;4915745;28;20042;-74
2023/11/17 04:01:35;;;;;;;0.00;0.00;;;;;;;4.44;100.00;100568.31;4920982;28;20038;-74
2023/11/17 04:04:00;;;;;;;0.05;0.05;;;;;;;4.25;100.00;100551.19;4949641;28;20090;-74
2023/11/17 04:06:26;;;;;;;0.00;0.00;;;;;;;4.23;100.00;100556.00;4928006;28;20500;-74
2023/11/17 04:08:53;;;;;;;0.00;0.00;;;;;;;4.18;100.00;100564.78;4947056;28;20374;-74
2023/11/17 04:11:19;;;;;;;0.00;0.00;;;;;;;4.16;100.00;100562.31;4924093;28;20073;-75
2023/11/17 04:13:44;;;;;;;0.00;0.00;;;;;;;4.15;100.00;100559.81;4939057;28;20699;-74
2023/11/17 04:16:10;;;;;;;0.00;0.00;;;;;;;4.08;100.00;100548.22;4937229;28;20461;-74
2023/11/17 04:18:40;;;;;;;0.00;0.00;;;;;;;4.14;100.00;100564.38;4955525;28;20019;-75
2023/11/17 04:21:06;;;;;;;0.00;0.00;;;;;;;3.99;100.00;100542.25;4960004;28;20048;-74
2023/11/17 04:23:33;;;;;;;0.00;0.00;;;;;;;4.01;100.00;100554.47;4962531;28;20107;-75
2023/11/17 04:25:59;;;;;;;0.00;0.00;;;;;;;4.09;100.00;100566.09;4932708;28;20047;-73
2023/11/17 04:28:25;;;;;;;0.00;0.00;;;;;;;4.07;100.00;100570.91;4939079;28;20456;-74
2023/11/17 04:30:50;;;;;;;0.00;0.00;;;;;;;4.10;100.00;100584.00;4928374;28;20039;-75
2023/11/17 04:33:15;;;;;;;0.10;0.10;;;;;;;4.18;100.00;100581.03;4930090;28;20029;-73
2023/11/17 04:35:41;;;;;;;0.00;0.00;;;;;;;4.21;100.00;100580.59;4962473;28;20024;-74
2023/11/17 04:38:06;;;;;;;0.00;0.00;;;;;;;4.09;100.00;100576.91;4950889;28;20058;-74
2023/11/17 04:40:33;;;;;;;0.00;0.00;;;;;;;4.08;100.00;100580.69;4964516;28;20030;-74
2023/11/17 04:43:00;;;;;;;0.10;0.10;;;;;;;4.07;100.00;100581.72;4922463;28;20041;-73
2023/11/17 04:45:26;;;;;;;0.00;0.00;;;;;;;4.08;100.00;100584.22;4965178;28;20030;-73
2023/11/17 04:47:51;;;;;;;0.00;0.00;;;;;;;4.17;100.00;100603.72;4940344;28;20747;-74
2023/11/17 04:50:17;;;;;;;0.10;0.10;;;;;;;4.30;100.00;100606.31;4929860;28;20081;-74
2023/11/17 04:52:43;;;;;;;0.10;0.10;;;;;;;4.29;100.00;100601.13;4949329;28;20037;-74
2023/11/17 04:55:13;;;;;;;0.00;0.00;;;;;;;4.21;100.00;100599.53;4930528;28;20707;-76
2023/11/17 04:57:39;;;;;;;0.00;0.00;;;;;;;4.07;100.00;100593.38;4929039;28;20105;-73
2023/11/17 05:00:06;;;;;;;0.00;0.00;;;;;;;3.98;100.00;100592.81;4928604;28;20038;-74
2023/11/17 05:02:38;;;;;;;0.00;0.00;;;;;;;3.98;100.00;100614.44;4933219;28;20031;-74
2023/11/17 05:05:04;;;;;;;0.00;0.00;;;;;;;3.89;100.00;100598.72;4928931;28;20031;-74
2023/11/17 05:07:30;;;;;;;0.00;0.00;;;;;;;3.77;100.00;100596.69;4915827;28;20137;-73
2023/11/17 05:09:55;;;;;;;0.00;0.00;;;;;;;3.75;100.00;100603.34;4951761;28;20019;-74
2023/11/17 05:12:20;;;;;;;0.00;0.00;;;;;;;3.75;100.00;100614.19;4942680;28;20039;-73
2023/11/17 05:14:46;;;;;;;0.10;0.10;;;;;;;3.66;100.00;100600.94;4934868;28;20079;-74
2023/11/17 05:17:15;;;;;;;0.00;0.00;;;;;;;3.59;100.00;100605.53;4933109;28;20019;-74
2023/11/17 05:19:40;;;;;;;0.00;0.00;;;;;;;3.64;100.00;100603.00;4911456;28;20031;-75
2023/11/17 05:22:06;;;;;;;0.00;0.00;;;;;;;3.83;100.00;100605.81;4946604;28;20026;-74
2023/11/17 05:24:33;;;;;;;0.10;0.10;;;;;;;3.80;100.00;100598.16;4958434;28;21512;-74
2023/11/17 05:26:59;;;;;;;0.00;0.00;;;;;;;3.90;100.00;100617.44;4917116;28;20030;-74
2023/11/17 05:29:24;;;;;;;0.00;0.00;;;;;;;3.98;100.00;100622.56;4960779;28;20031;-74
2023/11/17 05:31:49;;;;;;;0.00;0.00;;;;;;;4.04;100.00;100620.88;4932876;28;20086;-74
2023/11/17 05:34:15;;;;;;;0.00;0.00;;;;;;;3.84;100.00;100612.88;4946383;28;20035;-75
2023/11/17 05:36:41;;;;;;;0.00;0.00;;;;;;;3.74;100.00;100607.09;4920234;28;20485;-74
2023/11/17 05:39:08;;;;;;;0.00;0.00;;;;;;;3.77;100.00;100609.41;4948090;28;20026;-75
2023/11/17 05:41:34;;;;;;;0.00;0.00;;;;;;;3.55;100.00;100588.06;4945081;28;20071;-73
2023/11/17 05:44:02;;;;;;;0.00;0.00;;;;;;;3.74;100.00;100623.31;4925698;28;20058;-74
2023/11/17 05:46:28;;;;;;;0.00;0.00;;;;;;;3.69;100.00;100617.75;4934935;28;20041;-75
2023/11/17 05:48:53;;;;;;;0.08;0.08;;;;;;;3.72;100.00;100625.44;4938003;28;20019;-74
2023/11/17 05:51:22;;;;;;;0.00;0.00;;;;;;;3.68;100.00;100625.06;4947924;28;20031;-74
2023/11/17 05:53:48;;;;;;;0.00;0.00;;;;;;;3.63;100.00;100632.97;4959032;28;20537;-75
2023/11/17 05:56:17;;;;;;;0.00;0.00;;;;;;;3.49;100.00;100621.38;4941059;28;20081;-74
2023/11/17 05:58:43;;;;;;;0.00;0.00;;;;;;;3.64;100.00;100627.34;4943494;28;20090;-75
2023/11/17 06:01:08;;;;;;;0.10;0.10;;;;;;;3.62;100.00;100626.72;4971244;28;20035;-74
2023/11/17 06:03:35;;;;;;;0.00;0.00;;;;;;;3.66;100.00;100641.50;4947280;28;20053;-74
2023/11/17 06:06:02;;;;;;;0.00;0.00;;;;;;;3.60;100.00;100634.22;4935599;28;20065;-75
2023/11/17 06:08:31;;;;;;;0.10;0.10;;;;;;;3.65;100.00;100645.22;4934921;28;20030;-75
2023/11/17 06:11:00;;;;;;;0.10;0.10;;;;;;;3.60;100.00;100638.81;4933016;28;20039;-74
2023/11/17 06:13:25;;;;;;;0.00;0.00;;;;;;;3.54;100.00;100626.16;4926720;29;20034;-75
2023/11/17 06:15:51;;;;;;;0.00;0.00;;;;;;;3.63;100.00;100647.31;4922554;28;20085;-73
2023/11/17 06:18:16;;;;;;;0.00;0.00;;;;;;;3.64;100.00;100651.69;4936652;28;20034;-75
2023/11/17 06:20:42;;;;;;;0.00;0.00;;;;;;;3.64;100.00;100654.38;4923504;28;20098;-75
2023/11/17 06:23:10;;;;;;;0.00;0.00;;;;;;;3.59;100.00;100645.25;4941890;28;20023;-73
2023/11/17 06:25:36;;;;;;;0.00;0.00;;;;;;;3.49;100.00;100632.22;4937097;28;20043;-74
2023/11/17 06:28:03;;;;;;;0.00;0.00;;;;;;;3.55;100.00;100642.16;4943761;28;20042;-74
2023/11/17 06:30:29;;;;;;;0.00;0.00;;;;;;;3.48;100.00;100644.88;4940837;28;20096;-73
2023/11/17 06:32:55;;;;;;;0.00;0.00;;;;;;;3.39;100.00;100639.91;4953523;28;20043;-73
2023/11/17 06:35:20;;;;;;;0.00;0.00;;;;;;;3.41;100.00;100651.34;4924006;28;20107;-74
2023/11/17 06:37:46;;;;;;;0.00;0.00;;;;;;;3.39;100.00;100659.69;4933430;28;20034;-74
2023/11/17 06:40:11;;;;;;;0.00;0.00;;;;;;;3.40;100.00;100657.78;4952479;28;20107;-75
2023/11/17 06:42:39;;;;;;;0.00;0.00;;;;;;;3.33;100.00;100663.25;4931578;28;20473;-74
2023/11/17 06:45:05;;;;;;;0.00;0.00;;;;;;;3.29;100.00;100659.28;4932294;28;20045;-74
2023/11/17 06:47:32;;;;;;;0.00;0.00;;;;;;;3.21;100.00;100657.63;4966994;28;20374;-75
2023/11/17 06:49:58;;;;;;;0.10;0.10;;;;;;;3.29;100.00;100680.91;4919295;28;20039;-78
2023/11/17 06:52:24;;;;;;;0.10;0.10;;;;;;;3.19;100.00;100678.66;4963077;28;20039;-74
2023/11/17 06:54:49;;;;;;;0.00;0.00;;;;;;;3.11;100.00;100668.91;4951063;28;20050;-74
2023/11/17 06:57:15;;;;;;;0.00;0.00;;;;;;;3.10;100.00;100656.41;4953987;28;20117;-74
2023/11/17 06:59:40;;;;;;;0.10;0.10;;;;;;;3.24;100.00;100681.56;4937021;28;20035;-76
2023/11/17 07:02:08;;;;;;;0.00;0.00;;;;;;;3.06;100.00;100657.06;4942302;28;20039;-75
2023/11/17 07:04:33;;;;;;;0.10;0.10;;;;;;;3.22;100.00;100699.03;4939456;28;20046;-74
2023/11/17 07:07:04;;;;;;;0.00;0.00;;;;;;;3.16;100.00;100698.00;4961652;28;20035;-76
2023/11/17 07:09:36;;;;;;;0.00;0.00;;;;;;;3.14;100.00;100689.28;4929830;28;20030;-76
2023/11/17 07:12:06;;;;;;;0.00;0.00;;;;;;;3.08;100.00;100690.09;4946155;28;20098;-75
2023/11/17 07:14:31;;;;;;;0.00;0.00;;;;;;;3.06;100.00;100694.88;4923205;28;21761;-75
2023/11/17 07:16:57;;;;;;;0.00;0.00;;;;;;;3.03;100.00;100700.72;4930590;28;20039;-74
2023/11/17 07:19:24;;;;;;;0.00;0.00;;;;;;;2.97;100.00;100694.28;4933671;28;20056;-76
2023/11/17 07:21:50;;;;;;;0.00;0.00;;;;;;;2.94;100.00;100706.31;4949031;28;20022;-74
2023/11/17 07:24:16;;;;;;;0.00;0.00;;;;;;;2.95;100.00;100707.16;4962431;28;20022;-73
2023/11/17 07:26:47;;;;;;;0.10;0.10;;;;;;;2.97;100.00;100710.47;4952993;28;20046;-74
2023/11/17 07:29:13;;;;;;;0.10;0.10;;;;;;;2.92;100.00;100703.00;4952841;28;20023;-74
2023/11/17 07:31:43;;;;;;;0.00;0.00;;;;;;;2.95;100.00;100716.09;4934312;28;20024;-74
2023/11/17 07:34:15;;;;;;;0.00;0.00;;;;;;;2.92;100.00;100703.00;4943690;28;20023;-75
2023/11/17 07:36:41;;;;;;;0.00;0.00;;;;;;;2.92;100.00;100704.84;4944973;28;20038;-75
2023/11/17 07:39:09;;;;;;;0.00;0.00;;;;;;;3.02;100.00;100712.56;4944799;28;20034;-75
2023/11/17 07:41:36;;;;;;;0.00;0.00;;;;;;;3.02;100.00;100707.16;4941880;28;20144;-74
2023/11/17 07:44:02;;;;;;;0.10;0.10;;;;;;;3.07;100.00;100701.97;4944919;28;20027;-73
2023/11/17 07:46:28;;;;;;;0.10;0.10;;;;;;;3.09;100.00;100697.16;4948956;28;20042;-74
2023/11/17 07:48:56;;;;;;;0.10;0.10;;;;;;;3.10;100.00;100693.44;4924868;28;20037;-76
2023/11/17 07:51:22;;;;;;;0.00;0.00;;;;;;;3.05;100.00;100707.56;4950428;28;20041;-75
2023/11/17 07:53:48;;;;;;;0.00;0.00;;;;;;;3.06;100.00;100703.81;4954916;28;20440;-75
2023/11/17 07:56:14;;;;;;;0.00;0.00;;;;;;;2.97;100.00;100684.28;4946763;28;20039;-77
2023/11/17 07:58:40;;;;;;;0.10;0.10;;;;;;;3.17;100.00;100710.47;4924335;28;20386;-76
2023/11/17 08:01:08;;;;;;;0.00;0.00;;;;;;;3.23;100.00;100719.63;4947307;28;20038;-76
2023/11/17 08:03:38;;;;;;;0.00;0.00;;;;;;;3.35;100.00;100717.09;4948241;28;20081;-75
2023/11/17 08:06:05;;;;;;;0.00;0.00;;;;;;;3.45;100.00;100717.47;4947621;28;20038;-75
2023/11/17 08:08:31;;;;;;;0.00;0.00;;;;;;;3.54;100.00;100726.19;4949571;28;20046;-75
2023/11/17 08:10:57;;;;;;;0.10;0.10;;;;;;;3.60;100.00;100714.53;4962762;28;20973;-75
2023/11/17 08:13:25;;;;;;;0.10;0.10;;;;;;;3.68;100.00;100706.19;4919232;28;20078;-77
2023/11/17 08:15:51;;;;;;;0.10;0.10;;;;;;;3.83;100.00;100708.63;4942917;28;20027;-76
2023/11/17 08:18:16;;;;;;;0.00;0.00;;;;;;;4.01;100.00;100721.44;4933508;28;20034;-78
2023/11/17 08:20:44;;;;;;;0.00;0.00;;;;;;;4.14;100.00;100718.66;4952020;28;20034;-75
2023/11/17 08:23:10;;;;;;;0.00;0.00;;;;;;;4.35;100.00;100725.66;4931611;28;20027;-75
2023/11/17 08:25:36;;;;;;;0.00;0.00;;;;;;;4.40;100.00;100718.75;4967695;28;20062;-75
2023/11/17 08:28:03;;;;;;;0.10;0.10;;;;;;;4.61;100.00;100736.53;4925193;28;20090;-75
2023/11/17 08:30:28;;;;;;;0.00;0.00;;;;;;;4.66;100.00;100734.00;4949977;28;20054;-75
2023/11/17 08:32:54;;;;;;;0.00;0.00;;;;;;;4.77;100.00;100729.75;4911369;28;20464;-75
2023/11/17 08:35:22;;;;;;;0.00;0.00;;;;;;;4.89;100.00;100749.66;4947624;28;20026;-75
2023/11/17 08:37:48;;;;;;;0.00;0.00;;;;;;;4.84;100.00;100741.34;4930477;28;20030;-75
2023/11/17 08:40:18;;;;;;;0.00;0.00;;;;;;;4.81;100.00;100747.22;4963273;28;20449;-75
2023/11/17 08:42:44;;;;;;;0.00;0.00;;;;;;;4.84;100.00;100757.63;4935884;28;20027;-76
2023/11/17 08:45:09;;;;;;;0.00;0.00;;;;;;;4.86;100.00;100760.94;4932437;28;20035;-76
2023/11/17 08:47:39;;;;;;;0.00;0.00;;;;;;;4.93;100.00;100761.72;4938361;28;20042;-76
2023/11/17 08:50:09;;;;;;;0.00;0.00;;;;;;;5.03;100.00;100764.75;4931425;28;20027;-76
2023/11/17 08:52:37;;;;;;;0.00;0.00;;;;;;;5.19;100.00;100773.41;4938700;28;20038;-76
2023/11/17 08:55:07;;;;;;;0.10;0.10;;;;;;;5.50;100.00;100755.38;4936535;28;20046;-75
2023/11/17 08:57:34;;;;;;;0.10;0.10;;;;;;;6.70;100.00;100753.91;4935723;28;20027;-75
2023/11/17 09:00:00;;;;;;;0.00;0.00;;;;;;;8.49;100.00;100748.09;4921987;28;20030;-76
2023/11/17 09:02:26;;;;;;;0.00;0.00;;;;;;;10.83;100.00;100757.34;4945489;28;20114;-74
2023/11/17 09:04:52;;;;;;;0.00;0.00;;;;;;;12.78;87.63;100764.97;4931968;28;20073;-77
2023/11/17 09:07:19;;;;;;;0.00;0.00;;;;;;;14.33;77.51;100763.59;4942651;28;20614;-76
2023/11/17 09:09:45;;;;;;;0.00;0.00;;;;;;;15.48;70.38;100762.50;4917615;28;20054;-77
2023/11/17 09:12:13;;;;;;;0.00;0.00;;;;;;;16.13;66.89;100737.25;4914007;28;20094;-79
2023/11/17 09:14:42;;;;;;;0.00;0.00;;;;;;;17.04;63.12;100760.25;4946972;28;20563;-81
2023/11/17 09:17:07;;;;;;;0.00;0.00;;;;;;;18.24;58.78;100757.78;4953442;28;20030;-75
2023/11/17 09:19:35;;;;;;;0.00;0.00;;;;;;;19.40;54.94;100767.53;4914854;29;20042;-75
2023/11/17 09:22:01;;;;;;;0.00;0.00;;;;;;;19.89;52.62;100776.75;4949870;28;20112;-75
2023/11/17 09:24:29;;;;;;;0.00;0.00;;;;;;;20.73;50.51;100766.53;4929872;28;21724;-74
2023/11/17 09:26:56;;;;;;;0.00;0.00;;;;;;;21.69;48.65;100778.66;4916660;28;20035;-76
2023/11/17 09:29:22;;;;;;;0.00;0.00;;;;;;;22.65;46.03;100780.94;4958404;28;21371;-77
2023/11/17 09:31:49;;;;;;;0.00;0.00;;;;;;;23.28;43.90;100780.06;4937837;28;20035;-74
2023/11/17 09:34:15;;;;;;;0.00;0.00;;;;;;;24.14;41.97;100796.97;4971874;28;20117;-75
2023/11/17 09:36:41;;;;;;;0.00;0.00;;;;;;;24.98;39.95;100791.94;4962706;28;20023;-75
2023/11/17 09:39:10;;;;;;;0.00;0.00;;;;;;;25.67;39.11;100795.47;4951683;28;20033;-75
2023/11/17 09:41:38;;;;;;;0.00;0.00;;;;;;;26.03;37.55;100790.78;4927582;28;20042;-74
2023/11/17 09:44:06;;;;;;;0.00;0.00;;;;;;;26.82;37.23;100803.03;4912815;29;20020;-75
2023/11/17 09:46:36;;;;;;;0.10;0.10;;;;;;;27.82;35.90;100806.19;4936415;28;20035;-75
2023/11/17 09:49:04;;;;;;;0.00;0.00;;;;;;;28.45;34.82;100798.38;4950527;28;20123;-76
2023/11/17 09:51:32;;;;;;;0.00;0.00;;;;;;;29.40;34.16;100807.63;4971086;28;20090;-76
2023/11/17 09:53:59;;;;;;;0.00;0.00;;;;;;;30.14;32.27;100802.28;4938337;28;20018;-77
2023/11/17 09:56:28;;;;;;;0.00;0.00;;;;;;;30.74;32.26;100801.88;4937038;28;20041;-77
2023/11/17 09:58:56;;;;;;;0.00;0.00;;;;;;;31.59;30.63;100819.53;4940335;28;20059;-76
2023/11/17 10:01:27;;;;;;;0.00;0.00;;;;;;;31.56;29.91;100811.03;4968528;28;20019;-77
2023/11/17 10:03:58;;;;;;;0.00;0.00;;;;;;;32.04;29.57;100830.47;4929463;28;20034;-75
2023/11/17 10:06:27;;;;;;;0.00;0.00;;;;;;;32.25;29.27;100828.88;4970319;28;20465;-76
2023/11/17 10:08:55;;;;;;;0.00;0.00;;;;;;;32.30;28.51;100842.59;4946115;28;20015;-77
2023/11/17 10:11:22;;;;;;;0.00;0.00;;;;;;;32.30;28.39;100848.25;4971605;28;20027;-74
2023/11/17 10:13:51;;;;;;;0.00;0.00;;;;;;;32.89;28.18;100837.22;4956114;28;20035;-76
2023/11/17 10:16:19;;;;;;;0.00;0.00;;;;;;;32.92;26.99;100848.97;4945306;28;20019;-77
2023/11/17 10:18:47;;;;;;;0.00;0.00;;;;;;;33.48;27.76;100841.41;4947473;28;20039;-77
2023/11/17 10:21:15;;;;;;;0.00;0.00;;;;;;;33.76;23.78;100848.16;4941426;28;20489;-77
2023/11/17 10:23:41;;;;;;;0.00;0.00;;;;;;;32.75;23.07;100840.09;4928162;28;20034;-77
2023/11/17 10:26:07;;;;;;;0.00;0.00;;;;;;;32.33;25.36;100841.78;4910426;28;20062;-77
2023/11/17 10:28:35;;;;;;;0.00;0.00;;;;;;;33.57;24.86;100855.13;4942258;28;20057;-78
2023/11/17 10:31:05;;;;;;;0.00;0.00;;;;;;;33.87;23.36;100857.38;4944642;28;20099;-77
2023/11/17 10:33:34;;;;;;;0.00;0.00;;;;;;;34.15;22.20;100843.41;4938392;28;20063;-77
2023/11/17 10:36:04;;;;;;;0.00;0.00;;;;;;;33.92;23.24;100837.09;4959802;28;20019;-77
2023/11/17 10:38:34;;;;;;;0.00;0.00;;;;;;;34.30;21.26;100838.41;4966905;28;20023;-76
2023/11/17 10:41:17;;;;;;;0.00;0.00;;;;;;;33.53;21.96;100835.31;4927107;29;20123;-75
2023/11/17 10:43:50;;;;;;;0.00;0.00;;;;;;;33.07;22.65;100847.69;4934545;28;20086;-75
2023/11/17 10:46:36;;;;;;;0.00;0.00;;;;;;;33.48;22.16;100843.47;4963888;28;20039;-75
2023/11/17 10:49:04;;;;;;;0.00;0.00;;;;;;;34.98;22.13;100842.56;4944107;28;20449;-76
2023/11/17 10:51:31;;;;;;;0.00;0.00;;;;;;;34.94;19.96;100843.44;4949003;28;20104;-75
2023/11/17 10:54:08;;;;;;;0.00;0.00;;;;;;;35.45;21.11;100851.28;4926907;28;20019;-77
2023/11/17 10:56:35;;;;;;;0.00;0.00;;;;;;;35.81;20.75;100847.94;4912599;28;20023;-76
2023/11/17 10:59:02;;;;;;;0.00;0.00;;;;;;;36.33;19.78;100844.63;4951446;28;20490;-76
2023/11/17 11:01:31;;;;;;;0.00;0.00;;;;;;;37.31;20.15;100843.53;4925323;28;20039;-76
2023/11/17 11:03:58;;;;;;;0.00;0.00;;;;;;;38.56;19.90;100852.28;4945151;28;20437;-77
2023/11/17 11:06:27;;;;;;;0.00;0.00;;;;;;;39.18;19.25;100854.22;4956077;28;20042;-76
2023/11/17 11:08:55;;;;;;;0.00;0.00;;;;;;;39.60;18.39;100851.28;4961847;28;20501;-76
2023/11/17 11:11:25;;;;;;;0.00;0.00;;;;;;;39.86;16.92;100848.41;4959196;28;20034;-76
2023/11/17 11:13:56;;;;;;;0.00;0.00;;;;;;;39.31;15.98;100835.00;4968788;28;20106;-76
2023/11/17 11:16:24;;;;;;;0.00;0.00;;;;;;;38.10;16.61;100834.31;4946039;28;20038;-76
2023/11/17 11:18:53;;;;;;;0.00;0.00;;;;;;;37.38;17.22;100837.66;4964038;28;20046;-75
2023/11/17 11:21:20;;;;;;;0.00;0.00;;;;;;;37.99;17.32;100841.09;4953386;28;20117;-76
2023/11/17 11:23:47;;;;;;;0.00;0.00;;;;;;;38.08;16.37;100840.47;4962592;28;20030;-77
2023/11/17 11:26:14;;;;;;;0.00;0.00;;;;;;;36.97;16.44;100818.19;4951279;28;20129;-76